createdAt,value
2017-07-27T00:01:00.507Z,0
2017-07-27T00:02:01.904Z,0
2017-07-27T00:03:03.312Z,0
2017-07-27T00:04:04.713Z,0
2017-07-27T00:05:06.111Z,0
2017-07-27T00:06:07.510Z,0
2017-07-27T00:07:08.908Z,0
2017-07-27T00:08:10.303Z,0
2017-07-27T00:09:11.703Z,0
2017-07-27T00:10:13.116Z,0
2017-07-27T00:11:14.516Z,0
2017-07-27T00:12:15.916Z,0
2017-07-27T00:13:17.318Z,0
2017-07-27T00:14:18.711Z,0
2017-07-27T00:15:20.108Z,0
2017-07-27T00:16:21.507Z,0
2017-07-27T00:17:22.905Z,0
2017-07-27T00:18:24.305Z,0
2017-07-27T00:19:25.705Z,0
2017-07-27T00:20:27.105Z,0
2017-07-27T00:21:28.503Z,0
2017-07-27T00:22:29.901Z,0
2017-07-27T00:23:31.299Z,0
2017-07-27T00:24:32.700Z,0
2017-07-27T00:25:34.097Z,0
2017-07-27T00:26:35.502Z,0
2017-07-27T00:27:36.900Z,0
2017-07-27T00:28:38.296Z,0
2017-07-27T00:29:39.693Z,0
2017-07-27T00:30:41.093Z,0
2017-07-27T00:31:42.491Z,0
2017-07-27T00:32:43.883Z,0
2017-07-27T00:33:45.288Z,0
2017-07-27T00:34:46.688Z,0
2017-07-27T00:35:48.081Z,0
2017-07-27T00:36:49.480Z,0
2017-07-27T00:37:50.874Z,0
2017-07-27T00:38:52.274Z,0
2017-07-27T00:39:53.674Z,0
2017-07-27T00:40:55.073Z,0
2017-07-27T00:41:56.471Z,0
2017-07-27T00:42:57.870Z,0
2017-07-27T00:43:59.267Z,0
2017-07-27T00:45:00.666Z,0
2017-07-27T00:46:02.067Z,0
2017-07-27T00:47:03.461Z,0
2017-07-27T00:48:04.863Z,0
2017-07-27T00:49:06.264Z,0
2017-07-27T00:50:07.663Z,0
2017-07-27T00:51:09.062Z,0
2017-07-27T00:52:10.459Z,0
2017-07-27T00:53:11.857Z,0
2017-07-27T00:54:13.255Z,0
2017-07-27T00:55:14.656Z,0
2017-07-27T00:56:16.054Z,0
2017-07-27T00:57:17.457Z,0
2017-07-27T00:58:18.852Z,0
2017-07-27T00:59:20.246Z,0
2017-07-27T01:00:21.641Z,0
2017-07-27T01:01:23.039Z,0
2017-07-27T01:02:24.449Z,0
2017-07-27T01:03:25.846Z,0
2017-07-27T01:04:27.237Z,0
2017-07-27T01:05:28.633Z,0
2017-07-27T01:06:30.031Z,0
2017-07-27T01:07:31.449Z,0
2017-07-27T01:08:32.845Z,0
2017-07-27T01:09:34.243Z,0
2017-07-27T01:10:35.643Z,0
2017-07-27T01:11:37.039Z,0
2017-07-27T01:12:38.443Z,0
2017-07-27T01:13:39.835Z,0
2017-07-27T01:14:41.233Z,0
2017-07-27T01:15:42.630Z,0
2017-07-27T01:16:44.028Z,0
2017-07-27T01:17:45.426Z,0
2017-07-27T01:18:46.826Z,0
2017-07-27T01:19:48.223Z,0
2017-07-27T01:20:49.619Z,0
2017-07-27T01:21:51.019Z,0
2017-07-27T01:22:52.417Z,0
2017-07-27T01:23:53.818Z,0
2017-07-27T01:24:55.214Z,0
2017-07-27T01:25:56.613Z,0
2017-07-27T01:26:58.017Z,0
2017-07-27T01:27:59.416Z,0
2017-07-27T01:29:00.813Z,0
2017-07-27T01:30:02.210Z,0
2017-07-27T01:31:03.608Z,0
2017-07-27T01:32:05.006Z,0
2017-07-27T01:33:06.405Z,0
2017-07-27T01:34:07.813Z,0
2017-07-27T01:35:09.192Z,0
2017-07-27T01:36:10.590Z,0
2017-07-27T01:37:11.992Z,0
2017-07-27T01:38:13.392Z,0
2017-07-27T01:39:14.807Z,0
2017-07-27T01:40:16.208Z,0
2017-07-27T01:41:17.606Z,0
2017-07-27T01:42:19.005Z,0
2017-07-27T01:43:20.400Z,0
2017-07-27T01:44:21.799Z,0
2017-07-27T01:45:23.200Z,0
2017-07-27T01:46:24.598Z,0
2017-07-27T01:47:25.992Z,0
2017-07-27T01:48:27.388Z,0
2017-07-27T01:49:28.787Z,0
2017-07-27T01:50:30.184Z,0
2017-07-27T01:51:31.581Z,0
2017-07-27T01:52:32.982Z,0
2017-07-27T01:53:34.384Z,0
2017-07-27T01:54:36.433Z,0
2017-07-27T01:55:37.831Z,0
2017-07-27T01:56:39.232Z,0
2017-07-27T01:57:40.630Z,0
2017-07-27T01:58:42.032Z,0
2017-07-27T01:59:43.428Z,0
2017-07-27T02:00:44.826Z,0
2017-07-27T02:01:46.222Z,0
2017-07-27T02:02:47.622Z,0
2017-07-27T02:03:49.021Z,0
2017-07-27T02:04:50.418Z,0
2017-07-27T02:05:51.817Z,0
2017-07-27T02:06:53.228Z,0
2017-07-27T02:07:54.627Z,0
2017-07-27T02:08:56.021Z,0
2017-07-27T02:09:57.419Z,0
2017-07-27T02:10:58.818Z,0
2017-07-27T02:12:00.222Z,0
2017-07-27T02:13:01.612Z,0
2017-07-27T02:14:03.016Z,0
2017-07-27T02:15:04.417Z,0
2017-07-27T02:16:05.814Z,0
2017-07-27T02:17:07.213Z,0
2017-07-27T02:18:08.608Z,0
2017-07-27T02:19:10.014Z,0
2017-07-27T02:20:11.408Z,0
2017-07-27T02:21:12.806Z,0
2017-07-27T02:22:14.204Z,0
2017-07-27T02:23:15.623Z,0
2017-07-27T02:24:17.018Z,0
2017-07-27T02:25:18.420Z,0
2017-07-27T02:26:19.817Z,0
2017-07-27T02:27:21.214Z,0
2017-07-27T02:28:22.616Z,0
2017-07-27T02:29:24.016Z,0
2017-07-27T02:30:25.415Z,0
2017-07-27T02:31:26.820Z,0
2017-07-27T02:32:28.222Z,0
2017-07-27T02:33:29.617Z,0
2017-07-27T02:34:31.016Z,0
2017-07-27T02:35:32.427Z,0
2017-07-27T02:36:33.830Z,0
2017-07-27T02:37:35.228Z,0
2017-07-27T02:38:36.619Z,0
2017-07-27T02:39:38.021Z,0
2017-07-27T02:40:39.420Z,0
2017-07-27T02:41:40.820Z,0
2017-07-27T02:42:42.220Z,0
2017-07-27T02:43:43.622Z,0
2017-07-27T02:44:45.019Z,0
2017-07-27T02:45:46.417Z,0
2017-07-27T02:46:47.815Z,0
2017-07-27T02:47:49.214Z,0
2017-07-27T02:48:50.610Z,0
2017-07-27T02:49:52.007Z,0
2017-07-27T02:50:53.412Z,0
2017-07-27T02:51:54.808Z,0
2017-07-27T02:52:56.208Z,0
2017-07-27T02:53:57.602Z,0
2017-07-27T02:54:58.997Z,0
2017-07-27T02:56:00.399Z,0
2017-07-27T02:57:01.800Z,0
2017-07-27T02:58:03.206Z,0
2017-07-27T02:59:04.600Z,0
2017-07-27T03:00:05.993Z,0
2017-07-27T03:01:07.398Z,0
2017-07-27T03:02:08.797Z,0
2017-07-27T03:03:10.203Z,0
2017-07-27T03:04:11.596Z,0
2017-07-27T03:05:12.996Z,0
2017-07-27T03:06:14.419Z,0
2017-07-27T03:07:15.813Z,0
2017-07-27T03:08:17.211Z,0
2017-07-27T03:09:18.608Z,0
2017-07-27T03:10:20.005Z,0
2017-07-27T03:11:21.405Z,0
2017-07-27T03:12:22.804Z,0
2017-07-27T03:13:24.199Z,0
2017-07-27T03:14:25.598Z,0
2017-07-27T03:15:26.996Z,0
2017-07-27T03:16:28.394Z,0
2017-07-27T03:17:29.792Z,0
2017-07-27T03:18:31.189Z,0
2017-07-27T03:19:32.592Z,4
2017-07-27T03:20:33.987Z,4
2017-07-27T03:21:35.385Z,4
2017-07-27T03:22:36.786Z,0
2017-07-27T03:23:38.185Z,0
2017-07-27T03:24:39.582Z,0
2017-07-27T03:25:40.981Z,0
2017-07-27T03:26:42.377Z,4
2017-07-27T03:27:43.772Z,4
2017-07-27T03:28:45.170Z,4
2017-07-27T03:29:46.574Z,0
2017-07-27T03:30:47.970Z,4
2017-07-27T03:31:49.369Z,4
2017-07-27T03:32:50.766Z,4
2017-07-27T03:33:52.172Z,4
2017-07-27T03:34:53.568Z,4
2017-07-27T03:35:54.961Z,8
2017-07-27T03:36:56.363Z,8
2017-07-27T03:37:57.757Z,8
2017-07-27T03:38:59.156Z,12
2017-07-27T03:40:00.562Z,12
2017-07-27T03:41:01.958Z,12
2017-07-27T03:42:03.359Z,16
2017-07-27T03:43:04.756Z,16
2017-07-27T03:44:06.154Z,16
2017-07-27T03:45:07.557Z,20
2017-07-27T03:46:08.955Z,16
2017-07-27T03:47:10.359Z,20
2017-07-27T03:48:11.760Z,16
2017-07-27T03:49:13.157Z,20
2017-07-27T03:50:14.553Z,20
2017-07-27T03:51:15.955Z,24
2017-07-27T03:52:17.352Z,20
2017-07-27T03:53:18.750Z,24
2017-07-27T03:54:20.163Z,24
2017-07-27T03:55:21.560Z,24
2017-07-27T03:56:22.961Z,28
2017-07-27T03:57:24.368Z,40
2017-07-27T03:58:25.757Z,52
2017-07-27T03:59:27.164Z,60
2017-07-27T04:00:28.559Z,72
2017-07-27T04:01:29.962Z,72
2017-07-27T04:02:31.361Z,72
2017-07-27T04:03:32.760Z,68
2017-07-27T04:04:34.166Z,68
2017-07-27T04:05:35.549Z,64
2017-07-27T04:06:36.956Z,72
2017-07-27T04:07:38.353Z,84
2017-07-27T04:08:39.754Z,100
2017-07-27T04:09:41.154Z,104
2017-07-27T04:10:42.554Z,108
2017-07-27T04:11:43.953Z,112
2017-07-27T04:12:45.352Z,108
2017-07-27T04:13:46.752Z,104
2017-07-27T04:14:48.154Z,108
2017-07-27T04:15:49.562Z,128
2017-07-27T04:16:50.959Z,128
2017-07-27T04:17:52.361Z,132
2017-07-27T04:18:53.758Z,132
2017-07-27T04:19:55.159Z,136
2017-07-27T04:20:56.557Z,136
2017-07-27T04:21:57.961Z,136
2017-07-27T04:22:59.364Z,132
2017-07-27T04:24:00.764Z,148
2017-07-27T04:25:02.178Z,152
2017-07-27T04:26:03.566Z,180
2017-07-27T04:27:04.971Z,208
2017-07-27T04:28:06.371Z,204
2017-07-27T04:29:07.885Z,196
2017-07-27T04:30:09.286Z,212
2017-07-27T04:31:10.700Z,196
2017-07-27T04:32:12.099Z,164
2017-07-27T04:33:13.505Z,140
2017-07-27T04:34:14.907Z,124
2017-07-27T04:35:16.307Z,96
2017-07-27T04:36:17.707Z,100
2017-07-27T04:37:19.113Z,96
2017-07-27T04:38:20.512Z,116
2017-07-27T04:39:22.223Z,172
2017-07-27T04:40:23.605Z,236
2017-07-27T04:41:25.011Z,336
2017-07-27T04:42:26.411Z,396
2017-07-27T04:43:27.817Z,412
2017-07-27T04:44:29.219Z,448
2017-07-27T04:45:30.622Z,500
2017-07-27T04:46:32.021Z,552
2017-07-27T04:47:33.418Z,596
2017-07-27T04:48:34.831Z,556
2017-07-27T04:49:36.223Z,580
2017-07-27T04:50:37.629Z,696
2017-07-27T04:51:39.031Z,760
2017-07-27T04:52:40.547Z,936
2017-07-27T04:53:41.952Z,1016
2017-07-27T04:54:43.354Z,1120
2017-07-27T04:55:44.755Z,1152
2017-07-27T04:56:46.157Z,1144
2017-07-27T04:57:47.558Z,1204
2017-07-27T04:58:48.965Z,1216
2017-07-27T04:59:50.365Z,1240
2017-07-27T05:00:51.779Z,1204
2017-07-27T05:01:53.177Z,1280
2017-07-27T05:02:54.579Z,1340
2017-07-27T05:03:56.005Z,1352
2017-07-27T05:04:57.417Z,1392
2017-07-27T05:05:58.830Z,1476
2017-07-27T05:07:00.230Z,1524
2017-07-27T05:08:01.630Z,1344
2017-07-27T05:09:03.032Z,1228
2017-07-27T05:10:04.432Z,1216
2017-07-27T05:11:05.836Z,1144
2017-07-27T05:12:07.261Z,1044
2017-07-27T05:13:08.644Z,1008
2017-07-27T05:14:10.051Z,944
2017-07-27T05:15:11.449Z,928
2017-07-27T05:16:12.856Z,872
2017-07-27T05:17:14.271Z,884
2017-07-27T05:18:15.665Z,812
2017-07-27T05:19:17.067Z,712
2017-07-27T05:20:18.471Z,668
2017-07-27T05:21:19.873Z,708
2017-07-27T05:22:21.273Z,736
2017-07-27T05:23:22.673Z,748
2017-07-27T05:24:24.082Z,764
2017-07-27T05:25:25.481Z,812
2017-07-27T05:26:26.881Z,812
2017-07-27T05:27:28.282Z,772
2017-07-27T05:28:29.688Z,696
2017-07-27T05:29:31.088Z,648
2017-07-27T05:30:32.500Z,644
2017-07-27T05:31:33.902Z,692
2017-07-27T05:32:35.301Z,744
2017-07-27T05:33:36.703Z,708
2017-07-27T05:34:38.108Z,700
2017-07-27T05:35:39.512Z,748
2017-07-27T05:36:40.914Z,740
2017-07-27T05:37:42.316Z,788
2017-07-27T05:38:43.716Z,928
2017-07-27T05:39:45.119Z,1024
2017-07-27T05:40:46.525Z,1116
2017-07-27T05:41:47.929Z,1028
2017-07-27T05:42:49.328Z,736
2017-07-27T05:43:50.730Z,564
2017-07-27T05:44:52.154Z,536
2017-07-27T05:45:53.537Z,520
2017-07-27T05:46:54.935Z,560
2017-07-27T05:47:56.338Z,676
2017-07-27T05:48:57.742Z,756
2017-07-27T05:49:59.144Z,752
2017-07-27T05:51:00.547Z,736
2017-07-27T05:52:01.946Z,716
2017-07-27T05:53:03.348Z,760
2017-07-27T05:54:04.748Z,756
2017-07-27T05:55:06.152Z,804
2017-07-27T05:56:07.559Z,924
2017-07-27T05:57:08.961Z,1112
2017-07-27T05:58:10.527Z,1208
2017-07-27T05:59:11.927Z,1244
2017-07-27T06:00:13.327Z,1408
2017-07-27T06:01:14.729Z,1528
2017-07-27T06:02:16.131Z,1596
2017-07-27T06:03:17.538Z,1668
2017-07-27T06:04:18.939Z,1680
2017-07-27T06:05:20.340Z,1716
2017-07-27T06:06:21.740Z,1824
2017-07-27T06:07:23.141Z,1884
2017-07-27T06:08:24.545Z,1936
2017-07-27T06:09:25.949Z,2020
2017-07-27T06:10:27.374Z,2120
2017-07-27T06:11:28.810Z,2264
2017-07-27T06:12:30.211Z,2392
2017-07-27T06:13:31.613Z,2508
2017-07-27T06:14:33.016Z,2572
2017-07-27T06:15:34.419Z,2592
2017-07-27T06:16:35.820Z,2604
2017-07-27T06:17:37.224Z,2532
2017-07-27T06:18:38.635Z,2484
2017-07-27T06:19:40.035Z,2332
2017-07-27T06:20:41.438Z,2332
2017-07-27T06:21:42.847Z,2312
2017-07-27T06:22:44.252Z,2132
2017-07-27T06:23:45.653Z,1856
2017-07-27T06:24:47.059Z,1888
2017-07-27T06:25:48.462Z,1796
2017-07-27T06:26:49.862Z,1672
2017-07-27T06:27:51.263Z,1668
2017-07-27T06:28:52.665Z,1708
2017-07-27T06:29:54.068Z,1948
2017-07-27T06:30:55.472Z,2052
2017-07-27T06:31:56.873Z,2060
2017-07-27T06:32:58.276Z,1880
2017-07-27T06:33:59.677Z,1764
2017-07-27T06:35:01.078Z,1556
2017-07-27T06:36:02.478Z,1528
2017-07-27T06:37:03.881Z,1752
2017-07-27T06:38:05.283Z,2056
2017-07-27T06:39:06.686Z,2080
2017-07-27T06:40:08.110Z,1840
2017-07-27T06:41:09.511Z,1864
2017-07-27T06:42:10.913Z,1884
2017-07-27T06:43:12.317Z,2292
2017-07-27T06:44:13.719Z,2528
2017-07-27T06:45:15.124Z,2440
2017-07-27T06:46:16.529Z,2460
2017-07-27T06:47:17.934Z,2436
2017-07-27T06:48:19.340Z,2436
2017-07-27T06:49:20.741Z,2428
2017-07-27T06:50:22.144Z,2328
2017-07-27T06:51:23.549Z,2300
2017-07-27T06:52:24.952Z,2592
2017-07-27T06:53:26.360Z,2672
2017-07-27T06:54:27.766Z,2716
2017-07-27T06:55:29.166Z,2716
2017-07-27T06:56:30.569Z,2684
2017-07-27T06:57:31.973Z,2664
2017-07-27T06:58:33.377Z,2620
2017-07-27T06:59:34.780Z,2628
2017-07-27T07:00:36.185Z,2460
2017-07-27T07:01:37.591Z,2276
2017-07-27T07:02:38.994Z,2224
2017-07-27T07:03:40.397Z,2228
2017-07-27T07:04:41.804Z,2340
2017-07-27T07:05:43.211Z,2348
2017-07-27T07:06:44.613Z,2304
2017-07-27T07:07:46.021Z,2224
2017-07-27T07:08:47.434Z,2268
2017-07-27T07:09:48.835Z,2240
2017-07-27T07:10:50.241Z,2152
2017-07-27T07:11:51.648Z,2144
2017-07-27T07:12:53.048Z,2128
2017-07-27T07:13:54.451Z,1964
2017-07-27T07:14:55.855Z,1932
2017-07-27T07:15:57.274Z,1988
2017-07-27T07:16:58.657Z,2008
2017-07-27T07:18:00.056Z,2008
2017-07-27T07:19:01.460Z,1956
2017-07-27T07:20:02.861Z,1908
2017-07-27T07:21:04.267Z,1964
2017-07-27T07:22:05.673Z,2060
2017-07-27T07:23:07.084Z,2160
2017-07-27T07:24:08.482Z,2192
2017-07-27T07:25:09.885Z,2176
2017-07-27T07:26:11.288Z,2080
2017-07-27T07:27:12.690Z,1948
2017-07-27T07:28:14.098Z,1828
2017-07-27T07:29:15.495Z,1704
2017-07-27T07:30:16.900Z,1616
2017-07-27T07:31:18.301Z,1604
2017-07-27T07:32:19.703Z,1588
2017-07-27T07:33:21.108Z,1556
2017-07-27T07:34:22.514Z,1528
2017-07-27T07:35:23.916Z,1588
2017-07-27T07:36:25.317Z,1504
2017-07-27T07:37:26.722Z,1476
2017-07-27T07:38:28.124Z,1524
2017-07-27T07:39:29.522Z,1552
2017-07-27T07:40:30.925Z,1672
2017-07-27T07:41:32.328Z,1704
2017-07-27T07:42:33.729Z,1652
2017-07-27T07:43:35.175Z,1688
2017-07-27T07:44:36.582Z,1804
2017-07-27T07:45:37.980Z,2016
2017-07-27T07:46:39.389Z,2120
2017-07-27T07:47:40.791Z,2256
2017-07-27T07:48:42.199Z,2416
2017-07-27T07:49:43.599Z,2368
2017-07-27T07:50:45.003Z,2172
2017-07-27T07:51:46.421Z,2080
2017-07-27T07:52:47.815Z,2212
2017-07-27T07:53:49.217Z,2268
2017-07-27T07:54:50.618Z,2140
2017-07-27T07:55:52.021Z,2096
2017-07-27T07:56:53.426Z,2520
2017-07-27T07:57:54.832Z,3044
2017-07-27T07:58:56.235Z,3612
2017-07-27T07:59:57.634Z,3876
2017-07-27T08:00:59.037Z,4020
2017-07-27T08:02:00.435Z,3964
2017-07-27T08:03:01.841Z,3532
2017-07-27T08:04:03.245Z,3736
2017-07-27T08:05:04.653Z,3976
2017-07-27T08:06:06.058Z,4624
2017-07-27T08:07:07.464Z,5156
2017-07-27T08:08:08.864Z,5492
2017-07-27T08:09:10.270Z,5020
2017-07-27T08:10:11.672Z,4796
2017-07-27T08:11:13.104Z,4840
2017-07-27T08:12:14.506Z,4916
2017-07-27T08:13:15.915Z,4932
2017-07-27T08:14:17.329Z,4828
2017-07-27T08:15:18.715Z,4488
2017-07-27T08:16:20.121Z,4768
2017-07-27T08:17:21.525Z,4908
2017-07-27T08:18:22.933Z,4380
2017-07-27T08:19:26.790Z,4052
2017-07-27T08:20:27.677Z,4368
2017-07-27T08:21:29.083Z,2684
2017-07-27T08:22:30.477Z,1712
2017-07-27T08:23:31.886Z,2332
2017-07-27T08:24:33.291Z,2104
2017-07-27T08:25:34.697Z,2236
2017-07-27T08:26:36.119Z,2160
2017-07-27T08:27:37.523Z,1980
2017-07-27T08:28:38.929Z,2876
2017-07-27T08:29:40.338Z,4504
2017-07-27T08:30:41.732Z,5276
2017-07-27T08:31:43.136Z,5332
2017-07-27T08:32:44.542Z,5032
2017-07-27T08:33:45.948Z,4696
2017-07-27T08:34:47.356Z,4608
2017-07-27T08:35:48.757Z,4708
2017-07-27T08:36:50.164Z,5060
2017-07-27T08:37:51.567Z,5252
2017-07-27T08:38:52.973Z,5448
2017-07-27T08:39:54.376Z,5836
2017-07-27T08:40:55.780Z,6136
2017-07-27T08:41:57.186Z,5788
2017-07-27T08:42:58.588Z,5592
2017-07-27T08:44:00.051Z,5268
2017-07-27T08:45:01.454Z,5328
2017-07-27T08:46:02.857Z,5256
2017-07-27T08:47:04.262Z,5360
2017-07-27T08:48:05.669Z,5364
2017-07-27T08:49:07.075Z,5552
2017-07-27T08:50:08.478Z,6068
2017-07-27T08:51:09.879Z,6572
2017-07-27T08:52:11.297Z,6428
2017-07-27T08:53:12.714Z,6704
2017-07-27T08:54:14.119Z,6732
2017-07-27T08:55:15.525Z,7104
2017-07-27T08:56:16.930Z,7052
2017-07-27T08:57:18.337Z,6632
2017-07-27T08:58:19.737Z,6376
2017-07-27T08:59:21.140Z,6616
2017-07-27T09:00:22.546Z,6740
2017-07-27T09:01:23.979Z,6912
2017-07-27T09:02:25.384Z,6848
2017-07-27T09:03:26.789Z,6924
2017-07-27T09:04:28.190Z,6808
2017-07-27T09:05:29.595Z,6020
2017-07-27T09:06:31.001Z,6236
2017-07-27T09:07:32.405Z,6824
2017-07-27T09:08:33.811Z,6972
2017-07-27T09:09:35.219Z,7280
2017-07-27T09:10:36.626Z,7984
2017-07-27T09:11:38.032Z,7736
2017-07-27T09:12:39.485Z,7916
2017-07-27T09:13:40.896Z,7340
2017-07-27T09:14:42.303Z,6788
2017-07-27T09:15:43.710Z,6540
2017-07-27T09:16:45.115Z,6256
2017-07-27T09:17:46.529Z,5752
2017-07-27T09:18:47.929Z,5312
2017-07-27T09:19:49.460Z,4884
2017-07-27T09:20:50.857Z,5052
2017-07-27T09:21:52.261Z,5276
2017-07-27T09:22:53.679Z,5256
2017-07-27T09:23:55.083Z,5352
2017-07-27T09:24:56.489Z,5396
2017-07-27T09:25:57.895Z,5412
2017-07-27T09:26:59.301Z,5032
2017-07-27T09:28:00.703Z,4552
2017-07-27T09:29:02.105Z,4728
2017-07-27T09:30:03.511Z,5404
2017-07-27T09:31:04.919Z,5208
2017-07-27T09:32:06.334Z,4640
2017-07-27T09:33:07.740Z,4420
2017-07-27T09:34:09.157Z,4240
2017-07-27T09:35:10.562Z,4136
2017-07-27T09:36:11.964Z,4372
2017-07-27T09:37:13.373Z,4264
2017-07-27T09:38:14.778Z,4136
2017-07-27T09:39:16.184Z,4256
2017-07-27T09:40:17.588Z,3824
2017-07-27T09:41:18.995Z,3268
2017-07-27T09:42:20.397Z,3280
2017-07-27T09:43:21.803Z,3584
2017-07-27T09:44:23.210Z,3520
2017-07-27T09:45:24.617Z,3208
2017-07-27T09:46:26.022Z,2940
2017-07-27T09:47:27.433Z,2924
2017-07-27T09:48:28.836Z,2936
2017-07-27T09:49:30.243Z,2968
2017-07-27T09:50:31.645Z,3000
2017-07-27T09:51:33.053Z,2772
2017-07-27T09:52:34.455Z,2824
2017-07-27T09:53:35.861Z,3052
2017-07-27T09:54:37.268Z,3080
2017-07-27T09:55:38.670Z,3428
2017-07-27T09:56:40.078Z,3744
2017-07-27T09:57:41.486Z,4028
2017-07-27T09:58:42.886Z,3824
2017-07-27T09:59:44.297Z,3332
2017-07-27T10:00:45.709Z,3928
2017-07-27T10:01:47.113Z,5416
2017-07-27T10:02:48.539Z,6444
2017-07-27T10:03:49.941Z,6760
2017-07-27T10:04:51.346Z,6648
2017-07-27T10:05:52.838Z,6804
2017-07-27T10:06:54.239Z,6312
2017-07-27T10:07:55.646Z,6724
2017-07-27T10:08:57.045Z,7200
2017-07-27T10:09:58.453Z,7684
2017-07-27T10:10:59.854Z,7024
2017-07-27T10:12:01.682Z,6560
2017-07-27T10:13:03.267Z,6632
2017-07-27T10:14:04.671Z,6856
2017-07-27T10:15:06.086Z,6788
2017-07-27T10:16:07.482Z,7124
2017-07-27T10:17:08.884Z,7376
2017-07-27T10:18:10.287Z,7084
2017-07-27T10:19:11.689Z,7104
2017-07-27T10:20:13.095Z,7184
2017-07-27T10:21:14.522Z,7024
2017-07-27T10:22:15.934Z,6488
2017-07-27T10:23:17.349Z,5740
2017-07-27T10:24:18.769Z,4872
2017-07-27T10:25:20.158Z,4248
2017-07-27T10:26:21.571Z,3360
2017-07-27T10:27:22.982Z,3232
2017-07-27T10:28:24.385Z,3100
2017-07-27T10:29:25.790Z,3060
2017-07-27T10:30:27.202Z,2972
2017-07-27T10:31:28.601Z,3004
2017-07-27T10:32:30.004Z,3052
2017-07-27T10:33:31.421Z,3296
2017-07-27T10:34:32.818Z,3780
2017-07-27T10:35:34.221Z,4652
2017-07-27T10:36:35.630Z,4784
2017-07-27T10:37:37.033Z,3896
2017-07-27T10:38:38.435Z,3780
2017-07-27T10:39:39.839Z,3624
2017-07-27T10:40:41.243Z,3784
2017-07-27T10:41:42.651Z,4180
2017-07-27T10:42:44.056Z,4016
2017-07-27T10:43:45.524Z,3912
2017-07-27T10:44:46.925Z,3984
2017-07-27T10:45:48.330Z,4116
2017-07-27T10:46:49.735Z,3944
2017-07-27T10:47:51.144Z,4024
2017-07-27T10:48:52.543Z,4340
2017-07-27T10:49:53.948Z,5056
2017-07-27T10:50:55.356Z,6056
2017-07-27T10:51:56.755Z,6952
2017-07-27T10:52:58.167Z,6684
2017-07-27T10:53:59.572Z,7808
2017-07-27T10:55:00.974Z,6668
2017-07-27T10:56:02.386Z,6372
2017-07-27T10:57:03.785Z,6068
2017-07-27T10:58:05.190Z,6268
2017-07-27T10:59:06.617Z,6004
2017-07-27T11:00:07.999Z,5004
2017-07-27T11:01:09.403Z,4496
2017-07-27T11:02:10.805Z,3932
2017-07-27T11:03:12.209Z,4332
2017-07-27T11:04:13.620Z,4824
2017-07-27T11:05:15.039Z,4948
2017-07-27T11:06:16.443Z,4784
2017-07-27T11:07:17.844Z,4864
2017-07-27T11:08:19.248Z,5628
2017-07-27T11:09:20.652Z,5064
2017-07-27T11:10:22.057Z,4720
2017-07-27T11:11:23.464Z,4364
2017-07-27T11:12:24.867Z,3520
2017-07-27T11:13:26.270Z,2552
2017-07-27T11:14:27.674Z,2016
2017-07-27T11:15:29.078Z,1772
2017-07-27T11:16:30.484Z,2260
2017-07-27T11:17:31.890Z,2944
2017-07-27T11:18:33.290Z,2308
2017-07-27T11:19:34.702Z,1820
2017-07-27T11:20:36.105Z,2216
2017-07-27T11:21:37.507Z,2228
2017-07-27T11:22:38.912Z,1980
2017-07-27T11:23:40.315Z,2220
2017-07-27T11:24:41.720Z,3072
2017-07-27T11:25:43.131Z,4452
2017-07-27T11:26:44.536Z,3824
2017-07-27T11:27:45.941Z,3080
2017-07-27T11:28:47.345Z,2256
2017-07-27T11:29:48.752Z,2324
2017-07-27T11:30:50.155Z,2192
2017-07-27T11:31:51.557Z,1760
2017-07-27T11:32:52.962Z,1256
2017-07-27T11:33:54.369Z,1032
2017-07-27T11:34:55.769Z,952
2017-07-27T11:35:57.171Z,932
2017-07-27T11:36:58.575Z,1056
2017-07-27T11:37:59.977Z,1328
2017-07-27T11:39:01.383Z,1968
2017-07-27T11:40:02.789Z,3284
2017-07-27T11:41:04.198Z,3832
2017-07-27T11:42:05.601Z,4052
2017-07-27T11:43:06.998Z,4448
2017-07-27T11:44:08.408Z,4324
2017-07-27T11:45:09.807Z,4620
2017-07-27T11:46:11.219Z,4616
2017-07-27T11:47:12.617Z,3404
2017-07-27T11:48:14.020Z,2224
2017-07-27T11:49:15.421Z,1608
2017-07-27T11:50:16.824Z,1228
2017-07-27T11:51:18.225Z,1084
2017-07-27T11:52:19.628Z,1076
2017-07-27T11:53:21.033Z,1112
2017-07-27T11:54:22.440Z,1232
2017-07-27T11:55:23.846Z,1616
2017-07-27T11:56:25.246Z,2532
2017-07-27T11:57:26.650Z,3580
2017-07-27T11:58:28.056Z,4196
2017-07-27T11:59:29.458Z,5928
2017-07-27T12:00:30.866Z,9296
2017-07-27T12:01:32.269Z,13464
2017-07-27T12:02:33.676Z,12668
2017-07-27T12:03:35.077Z,11960
2017-07-27T12:04:36.486Z,12168
2017-07-27T12:05:37.895Z,16864
2017-07-27T12:06:39.302Z,13400
2017-07-27T12:07:40.706Z,13412
2017-07-27T12:08:42.110Z,13492
2017-07-27T12:09:43.520Z,16060
2017-07-27T12:10:44.925Z,16480
2017-07-27T12:11:46.331Z,18496
2017-07-27T12:12:47.745Z,24352
2017-07-27T12:13:49.156Z,20288
2017-07-27T12:14:50.606Z,14600
2017-07-27T12:15:52.013Z,13384
2017-07-27T12:16:53.420Z,12416
2017-07-27T12:17:54.823Z,12940
2017-07-27T12:18:56.227Z,15132
2017-07-27T12:19:57.633Z,19872
2017-07-27T12:20:59.041Z,13968
2017-07-27T12:22:00.448Z,10872
2017-07-27T12:23:01.853Z,10036
2017-07-27T12:24:03.276Z,9700
2017-07-27T12:25:04.681Z,7452
2017-07-27T12:26:06.088Z,5720
2017-07-27T12:27:07.513Z,5188
2017-07-27T12:28:08.903Z,4136
2017-07-27T12:29:10.309Z,3964
2017-07-27T12:30:11.712Z,5196
2017-07-27T12:31:13.126Z,6264
2017-07-27T12:32:14.528Z,5800
2017-07-27T12:33:15.931Z,5188
2017-07-27T12:34:17.333Z,5548
2017-07-27T12:35:18.748Z,6284
2017-07-27T12:36:20.149Z,5432
2017-07-27T12:37:21.558Z,3832
2017-07-27T12:38:22.964Z,3320
2017-07-27T12:39:24.367Z,3236
2017-07-27T12:40:25.772Z,3080
2017-07-27T12:41:27.175Z,2820
2017-07-27T12:42:28.616Z,2964
2017-07-27T12:43:29.985Z,2992
2017-07-27T12:44:31.392Z,3364
2017-07-27T12:45:32.803Z,4244
2017-07-27T12:46:34.211Z,4604
2017-07-27T12:47:35.608Z,4868
2017-07-27T12:48:37.015Z,5684
2017-07-27T12:49:38.423Z,6740
2017-07-27T12:50:39.823Z,6844
2017-07-27T12:51:41.231Z,6572
2017-07-27T12:52:42.638Z,6344
2017-07-27T12:53:44.043Z,6300
2017-07-27T12:54:45.449Z,6520
2017-07-27T12:55:46.855Z,7328
2017-07-27T12:56:48.261Z,7812
2017-07-27T12:57:49.667Z,7516
2017-07-27T12:58:51.075Z,7312
2017-07-27T12:59:52.484Z,7416
2017-07-27T13:00:53.887Z,8392
2017-07-27T13:01:55.301Z,7192
2017-07-27T13:02:56.703Z,9564
2017-07-27T13:03:58.107Z,7120
2017-07-27T13:04:59.520Z,10276
2017-07-27T13:06:00.921Z,6756
2017-07-27T13:07:02.336Z,7500
2017-07-27T13:08:03.733Z,8420
2017-07-27T13:09:05.139Z,10720
2017-07-27T13:10:06.564Z,12540
2017-07-27T13:11:07.963Z,8472
2017-07-27T13:12:09.372Z,7460
2017-07-27T13:13:10.823Z,8756
2017-07-27T13:14:12.230Z,6900
2017-07-27T13:15:13.631Z,5964
2017-07-27T13:16:15.037Z,5328
2017-07-27T13:17:16.439Z,4892
2017-07-27T13:18:17.843Z,4496
2017-07-27T13:19:19.247Z,4312
2017-07-27T13:20:20.654Z,4256
2017-07-27T13:21:22.066Z,4696
2017-07-27T13:22:23.469Z,4668
2017-07-27T13:23:24.873Z,4376
2017-07-27T13:24:26.281Z,4228
2017-07-27T13:25:27.677Z,3860
2017-07-27T13:26:29.086Z,3596
2017-07-27T13:27:30.492Z,4164
2017-07-27T13:28:31.900Z,4596
2017-07-27T13:29:33.302Z,4516
2017-07-27T13:30:34.706Z,3988
2017-07-27T13:31:36.111Z,3772
2017-07-27T13:32:37.520Z,3692
2017-07-27T13:33:38.920Z,3200
2017-07-27T13:34:40.325Z,3216
2017-07-27T13:35:41.737Z,3404
2017-07-27T13:36:43.138Z,3548
2017-07-27T13:37:44.554Z,3748
2017-07-27T13:38:45.956Z,4036
2017-07-27T13:39:47.360Z,4312
2017-07-27T13:40:48.766Z,4876
2017-07-27T13:41:50.176Z,5408
2017-07-27T13:42:51.582Z,5560
2017-07-27T13:43:52.985Z,5696
2017-07-27T13:44:54.394Z,5440
2017-07-27T13:45:55.799Z,5444
2017-07-27T13:46:57.199Z,5356
2017-07-27T13:47:58.629Z,5652
2017-07-27T13:49:00.036Z,6396
2017-07-27T13:50:01.444Z,6592
2017-07-27T13:51:02.852Z,5488
2017-07-27T13:52:04.255Z,4924
2017-07-27T13:53:05.662Z,4272
2017-07-27T13:54:07.067Z,3512
2017-07-27T13:55:08.474Z,3352
2017-07-27T13:56:09.882Z,3104
2017-07-27T13:57:11.288Z,4140
2017-07-27T13:58:12.689Z,5020
2017-07-27T13:59:14.096Z,5832
2017-07-27T14:00:15.500Z,8556
2017-07-27T14:01:16.903Z,7060
2017-07-27T14:02:18.301Z,6068
2017-07-27T14:03:19.736Z,5960